createdAt,value
2018-09-02T00:02:18.456Z,17.04
2018-09-02T00:04:46.070Z,17.02
2018-09-02T00:07:13.751Z,16.98
2018-09-02T00:09:41.466Z,16.97
2018-09-02T00:12:09.078Z,16.91
2018-09-02T00:14:36.698Z,16.92
2018-09-02T00:17:04.388Z,16.92
2018-09-02T00:19:32.004Z,16.93
2018-09-02T00:21:59.656Z,16.89
2018-09-02T00:24:27.302Z,16.85
2018-09-02T00:26:54.951Z,16.84
2018-09-02T00:29:22.597Z,16.78
2018-09-02T00:31:50.319Z,16.86
2018-09-02T00:34:17.907Z,16.83
2018-09-02T00:36:45.526Z,16.86
2018-09-02T00:39:13.185Z,16.82
2018-09-02T00:41:40.776Z,16.79
2018-09-02T00:44:08.744Z,16.77
2018-09-02T00:46:36.442Z,16.77
2018-09-02T00:49:04.308Z,16.80
2018-09-02T00:51:31.967Z,16.76
2018-09-02T00:53:59.729Z,16.72
2018-09-02T00:56:27.424Z,16.71
2018-09-02T00:58:55.087Z,16.68
2018-09-02T01:01:22.716Z,16.68
2018-09-02T01:03:50.411Z,16.69
2018-09-02T01:06:18.090Z,16.74
2018-09-02T01:08:45.737Z,16.74
2018-09-02T01:11:13.380Z,16.72
2018-09-02T01:13:41.000Z,16.82
2018-09-02T01:16:08.713Z,16.73
2018-09-02T01:18:36.364Z,16.73
2018-09-02T01:21:04.012Z,16.74
2018-09-02T01:23:31.661Z,16.70
2018-09-02T01:25:59.301Z,16.65
2018-09-02T01:28:26.925Z,16.69
2018-09-02T01:30:54.590Z,16.65
2018-09-02T01:33:22.201Z,16.71
2018-09-02T01:35:49.886Z,16.72
2018-09-02T01:38:17.523Z,16.73
2018-09-02T01:40:45.142Z,16.57
2018-09-02T01:43:12.739Z,16.61
2018-09-02T01:45:40.380Z,16.67
2018-09-02T01:48:08.004Z,16.62
2018-09-02T01:50:35.619Z,16.70
2018-09-02T01:53:03.317Z,16.65
2018-09-02T01:55:30.952Z,16.59
2018-09-02T01:57:58.575Z,16.58
2018-09-02T02:00:26.263Z,16.55
2018-09-02T02:02:53.876Z,16.58
2018-09-02T02:05:21.553Z,16.59
2018-09-02T02:07:49.275Z,16.65
2018-09-02T02:10:16.915Z,16.64
2018-09-02T02:12:44.520Z,16.59
2018-09-02T02:15:12.169Z,16.52
2018-09-02T02:17:39.807Z,16.50
2018-09-02T02:20:07.550Z,16.48
2018-09-02T02:22:35.195Z,16.53
2018-09-02T02:25:02.990Z,16.51
2018-09-02T02:27:30.665Z,16.38
2018-09-02T02:29:58.632Z,16.42
2018-09-02T02:32:26.280Z,16.37
2018-09-02T02:34:53.899Z,16.39
2018-09-02T02:37:21.590Z,16.42
2018-09-02T02:39:49.220Z,16.43
2018-09-02T02:42:16.835Z,16.42
2018-09-02T02:44:44.495Z,16.38
2018-09-02T02:47:12.155Z,16.34
2018-09-02T02:49:39.795Z,16.28
2018-09-02T02:52:07.506Z,16.25
2018-09-02T02:54:35.170Z,16.23
2018-09-02T02:57:02.808Z,16.30
2018-09-02T02:59:30.467Z,16.29
2018-09-02T03:01:58.111Z,16.34
2018-09-02T03:04:25.734Z,16.40
2018-09-02T03:06:53.421Z,16.42
2018-09-02T03:09:21.110Z,16.34
2018-09-02T03:11:48.819Z,16.31
2018-09-02T03:14:16.500Z,16.28
2018-09-02T03:16:44.125Z,16.32
2018-09-02T03:19:11.766Z,16.38
2018-09-02T03:21:39.447Z,16.34
2018-09-02T03:24:07.179Z,16.34
2018-09-02T03:26:34.816Z,16.33
2018-09-02T03:29:02.495Z,16.29
2018-09-02T03:31:30.117Z,16.32
2018-09-02T03:33:57.752Z,16.32
2018-09-02T03:36:25.484Z,16.29
2018-09-02T03:38:53.097Z,16.32
2018-09-02T03:41:20.717Z,16.31
2018-09-02T03:43:48.435Z,16.27
2018-09-02T03:46:16.066Z,16.15
2018-09-02T03:48:43.764Z,16.24
2018-09-02T03:51:11.452Z,16.23
2018-09-02T03:53:39.056Z,16.30
2018-09-02T03:56:06.739Z,16.25
2018-09-02T03:58:34.484Z,16.28
2018-09-02T04:01:02.212Z,16.25
2018-09-02T04:03:29.859Z,16.28
2018-09-02T04:05:57.598Z,16.20
2018-09-02T04:08:25.223Z,16.25
2018-09-02T04:10:52.820Z,16.29
2018-09-02T04:13:20.501Z,16.31
2018-09-02T04:15:48.171Z,16.33
2018-09-02T04:18:15.843Z,16.36
2018-09-02T04:20:43.536Z,16.31
2018-09-02T04:23:11.202Z,16.25
2018-09-02T04:25:38.836Z,16.24
2018-09-02T04:28:06.504Z,16.22
2018-09-02T04:30:34.134Z,16.25
2018-09-02T04:33:01.771Z,16.31
2018-09-02T04:35:29.438Z,16.32
2018-09-02T04:37:57.052Z,16.32
2018-09-02T04:40:24.690Z,16.35
2018-09-02T04:42:52.409Z,16.33
2018-09-02T04:45:20.172Z,16.32
2018-09-02T04:47:47.798Z,16.31
2018-09-02T04:50:17.589Z,16.32
2018-09-02T04:52:45.195Z,16.33
2018-09-02T04:55:12.846Z,16.28
2018-09-02T04:57:41.264Z,16.30
2018-09-02T05:00:08.946Z,16.32
2018-09-02T05:02:36.552Z,16.32
2018-09-02T05:05:04.378Z,16.29
2018-09-02T05:07:32.341Z,16.29
2018-09-02T05:09:59.997Z,16.31
2018-09-02T05:12:27.620Z,16.32
2018-09-02T05:14:55.517Z,16.28
2018-09-02T05:17:25.297Z,16.20
2018-09-02T05:19:52.979Z,16.22
2018-09-02T05:22:20.739Z,16.18
2018-09-02T05:24:48.526Z,16.27
2018-09-02T05:27:16.393Z,16.26
2018-09-02T05:29:44.007Z,16.25
2018-09-02T05:32:11.603Z,16.30
2018-09-02T05:34:39.219Z,16.34
2018-09-02T05:37:07.023Z,16.30
2018-09-02T05:39:34.619Z,16.28
2018-09-02T05:42:02.257Z,16.33
2018-09-02T05:44:29.911Z,16.27
2018-09-02T05:46:57.495Z,16.27
2018-09-02T05:49:25.137Z,16.39
2018-09-02T05:51:52.752Z,16.42
2018-09-02T05:54:20.346Z,16.44
2018-09-02T05:56:47.990Z,16.39
2018-09-02T05:59:15.627Z,16.45
2018-09-02T06:01:43.235Z,16.47
2018-09-02T06:04:10.864Z,16.48
2018-09-02T06:06:38.444Z,16.49
2018-09-02T06:09:06.668Z,16.40
2018-09-02T06:11:34.280Z,16.42
2018-09-02T06:14:01.925Z,16.44
2018-09-02T06:16:29.507Z,16.49
2018-09-02T06:18:57.140Z,16.48
2018-09-02T06:21:24.755Z,16.56
2018-09-02T06:23:52.420Z,16.62
2018-09-02T06:26:20.068Z,16.64
2018-09-02T06:28:47.700Z,16.64
2018-09-02T06:31:15.319Z,16.61
2018-09-02T06:33:42.961Z,16.68
2018-09-02T06:36:10.645Z,16.71
2018-09-02T06:38:38.227Z,16.72
2018-09-02T06:41:06.175Z,16.70
2018-09-02T06:43:33.784Z,16.77
2018-09-02T06:46:01.439Z,16.69
2018-09-02T06:48:29.162Z,16.55
2018-09-02T06:50:56.787Z,16.60
2018-09-02T06:53:24.406Z,16.56
2018-09-02T06:55:52.056Z,16.60
2018-09-02T06:58:19.747Z,16.63
2018-09-02T07:00:47.366Z,16.55
2018-09-02T07:03:15.095Z,16.52
2018-09-02T07:05:42.756Z,16.52
2018-09-02T07:08:11.552Z,16.51
2018-09-02T07:10:39.746Z,16.50
2018-09-02T07:13:07.362Z,16.58
2018-09-02T07:15:34.993Z,16.64
2018-09-02T07:18:02.836Z,16.65
2018-09-02T07:20:30.691Z,16.60
2018-09-02T07:22:58.313Z,16.57
2018-09-02T07:25:25.999Z,16.62
2018-09-02T07:27:53.778Z,16.69
2018-09-02T07:30:21.388Z,16.68
2018-09-02T07:32:48.999Z,16.66
2018-09-02T07:35:16.610Z,16.66
2018-09-02T07:37:44.338Z,16.61
2018-09-02T07:40:12.000Z,16.68
2018-09-02T07:42:39.671Z,16.60
2018-09-02T07:45:08.075Z,16.64
2018-09-02T07:47:35.941Z,16.68
2018-09-02T07:50:03.622Z,16.69
2018-09-02T07:52:31.236Z,16.82
2018-09-02T07:54:58.874Z,16.82
2018-09-02T07:57:26.448Z,16.82
2018-09-02T07:59:54.103Z,16.83
2018-09-02T08:02:21.842Z,16.84
2018-09-02T08:04:49.475Z,16.85
2018-09-02T08:07:17.084Z,16.84
2018-09-02T08:09:44.739Z,16.86
2018-09-02T08:12:12.677Z,16.75
2018-09-02T08:14:40.265Z,16.71
2018-09-02T08:17:07.916Z,16.66
2018-09-02T08:19:35.534Z,16.62
2018-09-02T08:22:03.296Z,16.57
2018-09-02T08:24:30.973Z,16.60
2018-09-02T08:26:58.599Z,16.63
2018-09-02T08:29:26.602Z,16.77
2018-09-02T08:31:54.370Z,16.77
2018-09-02T08:34:22.076Z,16.82
2018-09-02T08:36:49.711Z,16.91
2018-09-02T08:39:17.369Z,17.07
2018-09-02T08:41:45.084Z,17.15
2018-09-02T08:44:12.711Z,17.15
2018-09-02T08:46:40.388Z,17.20
2018-09-02T08:49:08.191Z,17.26
2018-09-02T08:51:35.797Z,17.22
2018-09-02T08:54:03.587Z,17.16
2018-09-02T08:56:31.207Z,17.01
2018-09-02T08:58:58.857Z,17.13
2018-09-02T09:01:26.551Z,17.13
2018-09-02T09:03:54.167Z,17.11
2018-09-02T09:06:22.303Z,17.15
2018-09-02T09:08:50.166Z,17.13
2018-09-02T09:11:17.672Z,17.09
2018-09-02T09:13:45.298Z,17.15
2018-09-02T09:16:12.986Z,17.15
2018-09-02T09:18:40.599Z,17.20
2018-09-02T09:21:08.201Z,17.05
2018-09-02T09:23:35.881Z,17.00
2018-09-02T09:26:03.551Z,17.03
2018-09-02T09:28:31.140Z,17.08
2018-09-02T09:30:58.815Z,17.20
2018-09-02T09:33:26.479Z,17.27
2018-09-02T09:35:54.108Z,17.40
2018-09-02T09:38:21.786Z,17.44
2018-09-02T09:40:49.407Z,17.41
2018-09-02T09:43:17.009Z,17.46
2018-09-02T09:45:44.627Z,17.44
2018-09-02T09:48:12.216Z,17.54
2018-09-02T09:50:39.880Z,17.60
2018-09-02T09:53:07.560Z,17.61
2018-09-02T09:55:35.195Z,17.54
2018-09-02T09:58:03.026Z,17.54
2018-09-02T10:01:03.280Z,17.56
2018-09-02T10:03:30.917Z,17.67
2018-09-02T10:05:58.519Z,17.78
2018-09-02T10:08:26.115Z,17.89
2018-09-02T10:10:53.733Z,18.03
2018-09-02T10:13:21.323Z,17.99
2018-09-02T10:15:48.950Z,18.03
2018-09-02T10:18:16.609Z,18.04
2018-09-02T10:20:44.200Z,18.01
2018-09-02T10:23:11.832Z,17.97
2018-09-02T10:25:39.598Z,17.87
2018-09-02T10:28:07.294Z,17.85
2018-09-02T10:30:35.026Z,17.90
2018-09-02T10:33:02.714Z,17.93
2018-09-02T10:35:30.311Z,17.95
2018-09-02T10:37:58.046Z,17.92
2018-09-02T10:40:25.651Z,17.92
2018-09-02T10:42:53.267Z,17.95
2018-09-02T10:45:21.021Z,17.94
2018-09-02T10:47:48.646Z,17.89
2018-09-02T10:50:16.270Z,17.86
2018-09-02T10:52:43.919Z,17.89
2018-09-02T10:55:11.511Z,17.92
2018-09-02T10:57:39.137Z,17.92
2018-09-02T11:00:08.500Z,17.97
2018-09-02T11:02:36.196Z,17.93
2018-09-02T11:05:03.890Z,17.93
2018-09-02T11:07:31.527Z,17.90
2018-09-02T11:09:59.147Z,17.88
2018-09-02T11:12:26.723Z,17.89
2018-09-02T11:14:54.346Z,17.94
2018-09-02T11:17:21.963Z,17.97
2018-09-02T11:19:49.559Z,17.95
2018-09-02T11:22:17.205Z,18.00
2018-09-02T11:24:44.818Z,18.03
2018-09-02T11:27:12.451Z,18.09
2018-09-02T11:29:40.167Z,18.14
2018-09-02T11:32:07.771Z,18.18
2018-09-02T11:34:35.351Z,18.21
2018-09-02T11:37:02.999Z,18.19
2018-09-02T11:39:30.701Z,18.17
2018-09-02T11:41:58.314Z,18.03
2018-09-02T11:44:25.982Z,18.00
2018-09-02T11:46:53.796Z,18.00
2018-09-02T11:49:21.403Z,18.00
2018-09-02T11:51:49.073Z,18.04
2018-09-02T11:54:16.780Z,18.06
2018-09-02T11:56:44.430Z,18.18
2018-09-02T11:59:12.091Z,18.22
2018-09-02T12:01:39.826Z,18.29
2018-09-02T12:04:07.649Z,18.35
2018-09-02T12:06:35.472Z,18.32
2018-09-02T12:09:04.502Z,18.29
2018-09-02T12:11:32.177Z,18.32
2018-09-02T12:13:59.919Z,18.40
2018-09-02T12:16:27.481Z,18.46
2018-09-02T12:18:55.127Z,18.39
2018-09-02T12:21:22.804Z,18.38
2018-09-02T12:23:50.446Z,18.46
2018-09-02T12:26:18.089Z,18.46
2018-09-02T12:28:45.760Z,18.37
2018-09-02T12:31:13.379Z,18.38
2018-09-02T12:33:41.044Z,18.35
2018-09-02T12:36:08.858Z,18.27
2018-09-02T12:38:36.881Z,18.29
2018-09-02T12:41:04.664Z,18.33
2018-09-02T12:43:32.381Z,18.30
2018-09-02T12:46:00.108Z,18.32
2018-09-02T12:48:27.927Z,18.37
2018-09-02T12:50:56.192Z,18.45
2018-09-02T12:53:23.868Z,18.45
2018-09-02T12:55:51.605Z,18.50
2018-09-02T12:58:19.304Z,18.64
2018-09-02T13:00:46.950Z,18.69
2018-09-02T13:03:14.584Z,18.83
2018-09-02T13:05:42.240Z,18.90
2018-09-02T13:08:09.869Z,18.83
2018-09-02T13:10:37.584Z,18.78
2018-09-02T13:13:05.499Z,18.69
2018-09-02T13:15:33.190Z,18.65
2018-09-02T13:18:00.854Z,18.62
2018-09-02T13:20:28.541Z,18.64
2018-09-02T13:22:56.199Z,18.64
2018-09-02T13:25:23.928Z,18.63
2018-09-02T13:27:51.637Z,18.57
2018-09-02T13:30:19.271Z,18.53
2018-09-02T13:32:46.930Z,18.58
2018-09-02T13:35:14.602Z,18.53
2018-09-02T13:37:42.237Z,18.49
2018-09-02T13:40:09.941Z,18.40
2018-09-02T13:42:37.729Z,18.46
2018-09-02T13:45:05.857Z,18.49
2018-09-02T13:47:33.613Z,18.51
2018-09-02T13:50:01.265Z,18.48
2018-09-02T13:52:28.913Z,18.48
2018-09-02T13:54:56.545Z,18.44
2018-09-02T13:57:24.265Z,18.40
2018-09-02T13:59:52.119Z,18.47
2018-09-02T14:02:19.704Z,18.50
2018-09-02T14:04:47.415Z,18.45
2018-09-02T14:07:15.064Z,18.44
2018-09-02T14:09:42.695Z,18.46
2018-09-02T14:12:10.383Z,18.48
2018-09-02T14:14:38.029Z,18.50
2018-09-02T14:17:05.694Z,18.51
2018-09-02T14:19:33.377Z,18.50
2018-09-02T14:22:01.033Z,18.47
2018-09-02T14:24:28.682Z,18.51
2018-09-02T14:26:56.347Z,18.50
2018-09-02T14:29:24.084Z,18.49
2018-09-02T14:31:51.745Z,18.45
2018-09-02T14:34:19.391Z,18.42
2018-09-02T14:36:47.081Z,18.45
2018-09-02T14:39:14.740Z,18.40
2018-09-02T14:41:42.723Z,18.41
2018-09-02T14:44:10.396Z,18.33
2018-09-02T14:46:38.583Z,18.31
2018-09-02T14:49:06.483Z,18.34
2018-09-02T14:51:34.120Z,18.35
2018-09-02T14:54:01.760Z,18.36
2018-09-02T14:56:29.457Z,18.45
2018-09-02T14:58:57.052Z,18.44
2018-09-02T15:01:24.788Z,18.51
2018-09-02T15:03:52.501Z,18.48
2018-09-02T15:06:20.215Z,18.56
2018-09-02T15:08:47.850Z,18.58
2018-09-02T15:11:15.556Z,18.59
2018-09-02T15:13:43.280Z,18.59
2018-09-02T15:16:11.320Z,18.52
2018-09-02T15:18:39.136Z,18.55
2018-09-02T15:21:07.340Z,18.57
2018-09-02T15:23:34.972Z,18.56
2018-09-02T15:26:03.522Z,18.59
2018-09-02T15:28:31.303Z,18.55
2018-09-02T15:30:59.332Z,18.58
2018-09-02T15:33:28.098Z,18.61
2018-09-02T15:35:55.875Z,18.64
2018-09-02T15:38:23.554Z,18.61
2018-09-02T15:40:51.410Z,18.59
2018-09-02T15:43:20.023Z,18.55
2018-09-02T15:45:47.827Z,18.55
2018-09-02T15:48:15.625Z,18.54
2018-09-02T15:50:43.515Z,18.60
2018-09-02T15:53:11.313Z,18.62
2018-09-02T15:55:39.242Z,18.59
2018-09-02T15:58:07.266Z,18.60
2018-09-02T16:00:35.010Z,18.53
2018-09-02T16:03:02.977Z,18.50
2018-09-02T16:05:30.998Z,18.51
2018-09-02T16:07:58.766Z,18.55
2018-09-02T16:10:26.561Z,18.49
2018-09-02T16:12:54.388Z,18.47
2018-09-02T16:15:22.169Z,18.49
2018-09-02T16:17:50.010Z,18.48
2018-09-02T16:20:17.749Z,18.47
2018-09-02T16:22:45.360Z,18.45
2018-09-02T16:25:13.106Z,18.40
2018-09-02T16:27:40.742Z,18.44
2018-09-02T16:30:08.456Z,18.34
2018-09-02T16:32:36.281Z,18.34
2018-09-02T16:35:04.039Z,18.34
2018-09-02T16:37:31.794Z,18.31
2018-09-02T16:39:59.602Z,18.36
2018-09-02T16:42:27.912Z,18.41
2018-09-02T16:44:57.756Z,18.46
2018-09-02T16:47:25.444Z,18.43
2018-09-02T16:49:53.274Z,18.43
2018-09-02T16:52:21.047Z,18.44
2018-09-02T16:54:49.184Z,18.50
2018-09-02T16:57:18.062Z,18.46
2018-09-02T16:59:46.594Z,18.48
2018-09-02T17:02:14.344Z,18.49
2018-09-02T17:04:44.711Z,18.50
2018-09-02T17:07:12.598Z,18.46
2018-09-02T17:09:40.485Z,18.45
2018-09-02T17:12:09.309Z,18.50
2018-09-02T17:14:44.784Z,18.45
2018-09-02T17:17:12.436Z,18.33
2018-09-02T17:19:42.773Z,18.33
2018-09-02T17:22:10.470Z,18.34
2018-09-02T17:24:38.357Z,18.37
2018-09-02T17:27:06.091Z,18.39
2018-09-02T17:29:34.489Z,18.43
2018-09-02T17:32:06.034Z,18.40
2018-09-02T17:34:33.870Z,18.31
2018-09-02T17:37:01.676Z,18.30
2018-09-02T17:39:29.358Z,18.29
2018-09-02T17:41:57.488Z,18.26
2018-09-02T17:44:25.245Z,18.27
2018-09-02T17:46:53.150Z,18.13
2018-09-02T17:49:20.801Z,18.12
2018-09-02T17:51:48.490Z,18.18
2018-09-02T17:54:16.286Z,18.17
2018-09-02T17:56:44.083Z,18.14
2018-09-02T17:59:11.834Z,18.11
2018-09-02T18:01:39.644Z,18.08
2018-09-02T18:04:07.284Z,18.04
2018-09-02T18:06:35.050Z,18.05
2018-09-02T18:09:04.623Z,18.04
2018-09-02T18:11:32.304Z,18.07
2018-09-02T18:13:59.983Z,18.04
2018-09-02T18:16:27.796Z,18.02
2018-09-02T18:18:56.312Z,17.97
2018-09-02T18:21:23.989Z,17.93
2018-09-02T18:23:51.755Z,17.91
2018-09-02T18:26:19.469Z,17.88
2018-09-02T18:28:47.965Z,17.92
2018-09-02T18:31:15.716Z,17.95
2018-09-02T18:33:43.479Z,17.91
2018-09-02T18:36:11.399Z,17.92
2018-09-02T18:38:39.052Z,17.95
2018-09-02T18:41:06.755Z,17.92
2018-09-02T18:43:34.584Z,17.92
2018-09-02T18:46:02.472Z,17.90
2018-09-02T18:48:30.155Z,17.92
2018-09-02T18:50:57.875Z,17.94
2018-09-02T18:53:27.636Z,17.95
2018-09-02T18:55:55.760Z,17.78
2018-09-02T18:58:23.549Z,17.75
2018-09-02T19:00:51.911Z,17.71
2018-09-02T19:03:19.625Z,17.71
2018-09-02T19:05:47.301Z,17.55
2018-09-02T19:08:15.533Z,17.43
2018-09-02T19:10:43.220Z,17.36
2018-09-02T19:13:11.056Z,17.44
2018-09-02T19:15:38.832Z,17.44
2018-09-02T19:18:06.842Z,17.37
2018-09-02T19:20:34.480Z,17.37
2018-09-02T19:23:02.293Z,17.42
2018-09-02T19:25:30.008Z,17.39
2018-09-02T19:27:57.688Z,17.29
2018-09-02T19:30:25.321Z,17.29
2018-09-02T19:32:52.977Z,17.26
2018-09-02T19:35:20.647Z,17.29
2018-09-02T19:37:48.325Z,17.31
2018-09-02T19:40:15.957Z,17.33
2018-09-02T19:42:43.754Z,17.35
2018-09-02T19:45:11.384Z,17.42
2018-09-02T19:47:39.127Z,17.44
2018-09-02T19:50:07.081Z,17.51
2018-09-02T19:52:34.744Z,17.53
2018-09-02T19:55:02.372Z,17.59
2018-09-02T19:57:29.988Z,17.56
2018-09-02T19:59:57.664Z,17.55
2018-09-02T20:02:25.307Z,17.50
2018-09-02T20:04:52.973Z,17.57
2018-09-02T20:07:20.625Z,17.46
2018-09-02T20:09:48.275Z,17.46
2018-09-02T20:12:15.972Z,17.57
2018-09-02T20:14:43.612Z,17.53
2018-09-02T20:17:11.243Z,17.57
2018-09-02T20:19:38.867Z,17.64
2018-09-02T20:22:08.719Z,17.64
2018-09-02T20:24:36.410Z,17.73
2018-09-02T20:27:04.056Z,17.78
2018-09-02T20:29:31.703Z,17.82
2018-09-02T20:31:59.375Z,17.83
2018-09-02T20:34:26.972Z,17.80
2018-09-02T20:36:54.693Z,17.83
2018-09-02T20:39:22.335Z,17.85
2018-09-02T20:41:49.924Z,17.75
2018-09-02T20:44:17.573Z,17.65
2018-09-02T20:46:45.184Z,17.67
2018-09-02T20:49:12.802Z,17.73
2018-09-02T20:51:40.472Z,17.74
2018-09-02T20:54:08.076Z,17.81
2018-09-02T20:56:35.699Z,17.74
2018-09-02T20:59:03.376Z,17.63
2018-09-02T21:01:31.009Z,17.56
2018-09-02T21:03:58.684Z,17.55
2018-09-02T21:06:26.376Z,17.63
2018-09-02T21:08:54.060Z,17.69
2018-09-02T21:11:21.713Z,17.63
2018-09-02T21:13:49.380Z,17.65
2018-09-02T21:16:17.023Z,17.61
2018-09-02T21:18:44.628Z,17.62
2018-09-02T21:21:12.307Z,17.52
2018-09-02T21:23:39.916Z,17.56
2018-09-02T21:26:07.540Z,17.61
2018-09-02T21:28:35.203Z,17.63
2018-09-02T21:31:02.856Z,17.66
2018-09-02T21:33:30.479Z,17.67
2018-09-02T21:35:58.095Z,17.65
2018-09-02T21:38:25.749Z,17.61
2018-09-02T21:40:53.356Z,17.62
2018-09-02T21:43:20.985Z,17.70
2018-09-02T21:45:48.607Z,17.78
2018-09-02T21:48:16.239Z,17.85
2018-09-02T21:50:44.059Z,17.86
2018-09-02T21:53:11.939Z,17.84
2018-09-02T21:55:39.583Z,17.85
2018-09-02T21:58:07.255Z,17.83
2018-09-02T22:00:34.897Z,17.82
2018-09-02T22:03:02.518Z,17.91
2018-09-02T22:05:30.237Z,17.85
2018-09-02T22:07:57.880Z,17.84
2018-09-02T22:10:25.524Z,17.87
2018-09-02T22:12:53.181Z,17.95
2018-09-02T22:15:20.856Z,18.00
2018-09-02T22:17:48.504Z,18.02
2018-09-02T22:20:16.145Z,17.90
2018-09-02T22:22:43.796Z,17.80
2018-09-02T22:25:11.473Z,17.82
2018-09-02T22:27:39.252Z,17.83
2018-09-02T22:30:07.831Z,17.81
2018-09-02T22:32:35.465Z,17.73
2018-09-02T22:35:03.158Z,17.66
2018-09-02T22:37:30.803Z,17.63
2018-09-02T22:39:58.431Z,17.61
2018-09-02T22:42:26.072Z,17.58
2018-09-02T22:44:53.664Z,17.63
2018-09-02T22:47:21.269Z,17.68
2018-09-02T22:49:50.003Z,17.66
2018-09-02T22:52:17.629Z,17.64
2018-09-02T22:54:45.225Z,17.62
2018-09-02T22:57:12.884Z,17.62
2018-09-02T22:59:40.666Z,17.75
2018-09-02T23:02:08.521Z,17.80
2018-09-02T23:04:36.182Z,17.88
2018-09-02T23:07:03.816Z,17.94
2018-09-02T23:09:31.439Z,17.92
2018-09-02T23:11:59.144Z,17.94
2018-09-02T23:14:26.768Z,17.98
2018-09-02T23:16:55.388Z,18.02
2018-09-02T23:19:23.099Z,17.94
2018-09-02T23:21:50.746Z,17.99
2018-09-02T23:24:18.472Z,17.92
2018-09-02T23:26:46.148Z,17.86
2018-09-02T23:29:13.780Z,17.74
2018-09-02T23:31:41.368Z,17.67
2018-09-02T23:34:09.009Z,17.62
2018-09-02T23:36:36.635Z,17.56
2018-09-02T23:39:06.877Z,17.53
2018-09-02T23:41:34.511Z,17.59
2018-09-02T23:44:02.178Z,17.67
2018-09-02T23:46:29.776Z,17.62
2018-09-02T23:48:57.419Z,17.65
2018-09-02T23:51:25.048Z,17.75
2018-09-02T23:53:52.687Z,17.81
2018-09-02T23:56:20.336Z,17.83
2018-09-02T23:58:47.998Z,17.89
